createdAt,value
2019-02-20T00:00:07.937Z,99.80
2019-02-20T00:02:35.393Z,99.60
2019-02-20T00:05:02.944Z,99.50
2019-02-20T00:07:30.371Z,99.50
2019-02-20T00:09:57.928Z,99.40
2019-02-20T00:12:25.389Z,99.30
2019-02-20T00:14:53.108Z,99.10
2019-02-20T00:17:20.783Z,99.10
2019-02-20T00:19:48.472Z,99.70
2019-02-20T00:22:16.217Z,99.90
2019-02-20T00:24:43.704Z,99.90
2019-02-20T00:27:11.162Z,99.90
2019-02-20T00:29:38.696Z,99.90
2019-02-20T00:32:06.696Z,99.90
2019-02-20T00:34:34.097Z,99.90
2019-02-20T00:37:01.782Z,99.90
2019-02-20T00:39:29.233Z,99.90
2019-02-20T00:41:56.660Z,99.90
2019-02-20T00:44:36.822Z,99.90
2019-02-20T00:47:26.691Z,99.90
2019-02-20T00:49:54.620Z,99.90
2019-02-20T00:52:35.510Z,99.90
2019-02-20T00:55:03.070Z,99.90
2019-02-20T00:57:30.503Z,99.90
2019-02-20T00:59:57.901Z,99.90
2019-02-20T01:02:25.278Z,99.90
2019-02-20T01:04:52.638Z,99.90
2019-02-20T01:07:20.195Z,99.70
2019-02-20T01:09:47.551Z,99.40
2019-02-20T01:12:15.078Z,99.30
2019-02-20T01:14:42.459Z,99.20
2019-02-20T01:17:09.935Z,99.10
2019-02-20T01:19:37.390Z,98.90
2019-02-20T01:22:05.094Z,98.90
2019-02-20T01:24:32.605Z,98.70
2019-02-20T01:27:00.510Z,99.10
2019-02-20T01:29:28.342Z,99.10
2019-02-20T01:31:55.763Z,98.80
2019-02-20T01:34:23.796Z,99.00
2019-02-20T01:36:51.430Z,98.80
2019-02-20T01:39:18.922Z,99.10
2019-02-20T01:41:46.644Z,99.10
2019-02-20T01:44:14.261Z,98.70
2019-02-20T01:46:41.695Z,98.90
2019-02-20T01:49:09.196Z,98.90
2019-02-20T01:51:36.880Z,99.20
2019-02-20T01:54:04.368Z,98.70
2019-02-20T01:56:31.825Z,99.00
2019-02-20T01:58:59.231Z,99.00
2019-02-20T02:01:26.780Z,99.30
2019-02-20T02:03:54.166Z,99.50
2019-02-20T02:06:21.772Z,99.50
2019-02-20T02:08:49.236Z,99.40
2019-02-20T02:11:16.682Z,99.30
2019-02-20T02:13:44.150Z,99.30
2019-02-20T02:16:11.566Z,99.10
2019-02-20T02:18:39.011Z,99.00
2019-02-20T02:21:06.765Z,99.00
2019-02-20T02:23:34.500Z,99.10
2019-02-20T02:26:10.505Z,99.10
2019-02-20T02:28:31.316Z,99.00
2019-02-20T02:30:58.783Z,98.90
2019-02-20T02:33:26.611Z,98.80
2019-02-20T02:35:54.039Z,98.90
2019-02-20T02:38:21.929Z,99.00
2019-02-20T02:40:49.363Z,99.60
2019-02-20T02:43:16.697Z,99.90
2019-02-20T02:45:44.114Z,99.90
2019-02-20T02:48:11.586Z,99.90
2019-02-20T02:50:39.074Z,99.80
2019-02-20T02:53:06.600Z,99.90
2019-02-20T02:55:34.274Z,99.90
2019-02-20T02:58:02.066Z,99.90
2019-02-20T03:00:29.531Z,99.90
2019-02-20T03:02:56.966Z,99.90
2019-02-20T03:05:24.673Z,99.90
2019-02-20T03:07:52.159Z,99.90
2019-02-20T03:10:19.703Z,99.90
2019-02-20T03:12:47.187Z,99.90
2019-02-20T03:15:14.677Z,99.90
2019-02-20T03:17:42.167Z,99.90
2019-02-20T03:20:09.700Z,99.90
2019-02-20T03:22:37.298Z,99.90
2019-02-20T03:25:04.898Z,99.90
2019-02-20T03:27:32.457Z,99.90
2019-02-20T03:29:59.969Z,99.90
2019-02-20T03:32:27.447Z,99.90
2019-02-20T03:34:55.011Z,99.90
2019-02-20T03:37:22.511Z,99.90
2019-02-20T03:39:50.261Z,99.90
2019-02-20T03:42:17.984Z,99.90
2019-02-20T03:44:45.498Z,99.90
2019-02-20T03:47:12.978Z,99.90
2019-02-20T03:49:40.418Z,99.90
2019-02-20T03:52:08.022Z,99.90
2019-02-20T03:54:35.594Z,99.90
2019-02-20T03:57:03.414Z,99.90
2019-02-20T03:59:31.014Z,99.90
2019-02-20T04:01:59.074Z,99.90
2019-02-20T04:04:26.564Z,99.90
2019-02-20T04:06:54.386Z,99.90
2019-02-20T04:09:21.910Z,99.90
2019-02-20T04:11:49.680Z,99.90
2019-02-20T04:14:17.182Z,99.90
2019-02-20T04:16:45.053Z,99.90
2019-02-20T04:19:12.457Z,99.90
2019-02-20T04:21:39.940Z,99.90
2019-02-20T04:24:07.673Z,99.90
2019-02-20T04:26:37.870Z,99.90
2019-02-20T04:29:05.328Z,99.90
2019-02-20T04:31:32.749Z,99.90
2019-02-20T04:34:00.095Z,99.90
2019-02-20T04:36:27.837Z,99.90
2019-02-20T04:38:55.693Z,99.90
2019-02-20T04:41:23.363Z,99.90
2019-02-20T04:43:50.724Z,99.90
2019-02-20T04:46:18.157Z,99.80
2019-02-20T04:48:45.557Z,99.70
2019-02-20T04:51:12.963Z,99.70
2019-02-20T04:53:40.486Z,99.70
2019-02-20T04:56:08.001Z,99.70
2019-02-20T04:58:35.595Z,99.70
2019-02-20T05:01:03.013Z,99.70
2019-02-20T05:03:30.501Z,99.80
2019-02-20T05:05:58.201Z,99.80
2019-02-20T05:08:25.945Z,99.90
2019-02-20T05:10:53.785Z,99.90
2019-02-20T05:13:21.252Z,99.90
2019-02-20T05:15:48.621Z,99.90
2019-02-20T05:18:16.011Z,99.90
2019-02-20T05:20:43.509Z,99.90
2019-02-20T05:23:10.928Z,99.90
2019-02-20T05:25:38.442Z,99.90
2019-02-20T05:28:06.462Z,99.90
2019-02-20T05:30:33.939Z,99.90
2019-02-20T05:33:01.406Z,99.90
2019-02-20T05:35:29.240Z,99.90
2019-02-20T05:37:56.678Z,99.90
2019-02-20T05:40:24.755Z,99.90
2019-02-20T05:42:52.107Z,99.90
2019-02-20T05:45:19.604Z,99.90
2019-02-20T05:47:47.053Z,99.90
2019-02-20T05:50:14.648Z,99.90
2019-02-20T05:52:42.099Z,99.90
2019-02-20T05:55:10.045Z,99.90
2019-02-20T05:57:39.923Z,99.90
2019-02-20T06:00:08.405Z,99.90
2019-02-20T06:02:36.328Z,99.90
2019-02-20T06:05:04.678Z,99.90
2019-02-20T06:07:32.190Z,99.90
2019-02-20T06:10:00.321Z,99.90
2019-02-20T06:12:28.123Z,99.90
2019-02-20T06:14:56.006Z,99.90
2019-02-20T06:17:23.488Z,99.90
2019-02-20T06:19:51.526Z,99.90
2019-02-20T06:22:19.112Z,99.90
2019-02-20T06:24:46.972Z,99.90
2019-02-20T06:27:14.800Z,99.90
2019-02-20T06:29:42.202Z,99.90
2019-02-20T06:32:09.719Z,99.90
2019-02-20T06:34:37.255Z,99.90
2019-02-20T06:37:04.690Z,99.90
2019-02-20T06:39:32.133Z,99.90
2019-02-20T06:41:59.547Z,99.90
2019-02-20T06:44:27.264Z,99.90
2019-02-20T06:46:55.174Z,99.90
2019-02-20T06:49:22.676Z,99.90
2019-02-20T06:51:50.193Z,99.90
2019-02-20T06:54:17.829Z,99.90
2019-02-20T06:56:45.473Z,99.90
2019-02-20T06:59:13.185Z,99.90
2019-02-20T07:01:40.809Z,99.90
2019-02-20T07:04:08.387Z,99.90
2019-02-20T07:07:03.220Z,99.90
2019-02-20T07:10:15.405Z,99.90
2019-02-20T07:13:11.341Z,99.90
2019-02-20T07:16:13.054Z,99.90
2019-02-20T07:19:17.243Z,99.90
2019-02-20T07:22:29.807Z,99.90
2019-02-20T07:25:44.731Z,99.90
2019-02-20T07:28:44.965Z,99.90
2019-02-20T07:31:12.633Z,99.90
2019-02-20T07:33:40.062Z,99.90
2019-02-20T07:36:07.377Z,99.90
2019-02-20T07:38:35.209Z,99.90
2019-02-20T07:41:02.571Z,99.90
2019-02-20T07:43:30.330Z,99.90
2019-02-20T07:45:57.885Z,99.90
2019-02-20T07:48:25.773Z,99.90
2019-02-20T07:50:53.232Z,99.90
2019-02-20T07:53:20.543Z,99.90
2019-02-20T07:55:47.896Z,99.90
2019-02-20T07:58:15.571Z,99.90
2019-02-20T08:00:43.088Z,99.90
2019-02-20T08:03:10.612Z,99.90
2019-02-20T08:05:38.001Z,99.90
2019-02-20T08:08:05.313Z,99.90
2019-02-20T08:10:32.656Z,99.90
2019-02-20T08:13:00.044Z,99.90
2019-02-20T08:15:27.793Z,99.90
2019-02-20T08:17:55.426Z,99.90
2019-02-20T08:20:23.085Z,99.90
2019-02-20T08:22:50.540Z,99.90
2019-02-20T08:25:22.942Z,99.90
2019-02-20T08:27:47.477Z,99.90
2019-02-20T08:30:15.019Z,99.90
2019-02-20T08:32:42.540Z,99.90
2019-02-20T08:35:10.319Z,99.90
2019-02-20T08:37:37.634Z,99.90
2019-02-20T08:40:07.051Z,99.90
2019-02-20T08:42:34.367Z,99.90
2019-02-20T08:45:01.806Z,99.90
2019-02-20T08:47:29.217Z,99.90
2019-02-20T08:49:56.910Z,99.90
2019-02-20T08:52:24.386Z,99.90
2019-02-20T08:54:51.804Z,99.90
2019-02-20T08:57:19.127Z,99.90
2019-02-20T08:59:46.478Z,99.80
2019-02-20T09:02:13.892Z,99.70
2019-02-20T09:04:41.590Z,99.60
2019-02-20T09:07:09.359Z,99.20
2019-02-20T09:09:36.706Z,99.10
2019-02-20T09:12:04.054Z,99.20
2019-02-20T09:14:31.402Z,99.20
2019-02-20T09:16:58.882Z,99.50
2019-02-20T09:19:26.370Z,99.70
2019-02-20T09:21:54.311Z,99.50
2019-02-20T09:24:22.005Z,99.10
2019-02-20T09:26:49.732Z,99.50
2019-02-20T09:29:17.424Z,99.00
2019-02-20T09:31:44.828Z,99.00
2019-02-20T09:34:12.264Z,98.80
2019-02-20T09:36:39.599Z,98.60
2019-02-20T09:39:29.631Z,98.00
2019-02-20T09:41:57.067Z,97.70
2019-02-20T09:44:24.500Z,97.90
2019-02-20T09:46:51.889Z,98.00
2019-02-20T09:49:19.227Z,97.60
2019-02-20T09:51:46.956Z,97.20
2019-02-20T09:54:14.321Z,96.90
2019-02-20T09:56:42.057Z,96.70
2019-02-20T09:59:09.435Z,96.50
2019-02-20T10:01:36.857Z,96.30
2019-02-20T10:04:04.319Z,96.50
2019-02-20T10:06:31.678Z,96.50
2019-02-20T10:08:59.327Z,96.60
2019-02-20T10:11:27.105Z,96.60
2019-02-20T10:13:54.450Z,96.70
2019-02-20T10:16:22.224Z,96.80
2019-02-20T10:18:49.630Z,96.10
2019-02-20T10:21:17.305Z,95.90
2019-02-20T10:23:45.369Z,95.80
2019-02-20T10:26:13.669Z,95.30
2019-02-20T10:28:41.047Z,94.90
2019-02-20T10:31:08.524Z,94.00
2019-02-20T10:33:35.923Z,92.60
2019-02-20T10:36:03.334Z,92.80
2019-02-20T10:38:30.977Z,92.40
2019-02-20T10:40:58.762Z,91.10
2019-02-20T10:43:26.078Z,88.60
2019-02-20T10:45:53.414Z,88.80
2019-02-20T10:48:20.781Z,86.90
2019-02-20T10:50:48.574Z,86.30
2019-02-20T10:53:15.883Z,88.10
2019-02-20T10:55:43.902Z,87.20
2019-02-20T10:58:11.587Z,81.80
2019-02-20T11:00:39.021Z,83.70
2019-02-20T11:03:06.353Z,84.40
2019-02-20T11:05:33.776Z,85.70
2019-02-20T11:08:01.120Z,84.10
2019-02-20T11:10:28.448Z,83.70
2019-02-20T11:12:55.780Z,81.80
2019-02-20T11:15:23.123Z,83.70
2019-02-20T11:17:50.505Z,82.90
2019-02-20T11:20:17.823Z,80.60
2019-02-20T11:22:45.243Z,81.10
2019-02-20T11:25:12.685Z,79.30
2019-02-20T11:27:40.350Z,80.60
2019-02-20T11:30:10.473Z,78.10
2019-02-20T11:32:37.795Z,78.10
2019-02-20T11:35:05.390Z,81.60
2019-02-20T11:37:32.726Z,79.30
2019-02-20T11:40:00.305Z,78.60
2019-02-20T11:42:27.721Z,78.10
2019-02-20T11:44:55.125Z,78.90
2019-02-20T11:47:22.745Z,78.20
2019-02-20T11:49:50.123Z,78.30
2019-02-20T11:52:18.492Z,80.80
2019-02-20T11:54:45.871Z,80.20
2019-02-20T11:57:14.014Z,77.50
2019-02-20T11:59:41.344Z,76.20
2019-02-20T12:02:08.709Z,75.30
2019-02-20T12:04:36.049Z,77.50
2019-02-20T12:07:03.366Z,76.00
2019-02-20T12:09:30.959Z,73.40
2019-02-20T12:11:58.869Z,76.00
2019-02-20T12:14:26.233Z,74.60
2019-02-20T12:16:53.726Z,76.10
2019-02-20T12:19:32.988Z,76.30
2019-02-20T12:22:00.320Z,74.30
2019-02-20T12:24:27.730Z,74.10
2019-02-20T12:26:55.163Z,74.90
2019-02-20T12:29:22.891Z,75.90
2019-02-20T12:31:52.451Z,74.10
2019-02-20T12:34:19.771Z,72.30
2019-02-20T12:36:47.101Z,73.60
2019-02-20T12:39:14.518Z,74.10
2019-02-20T12:41:41.867Z,70.10
2019-02-20T12:44:09.207Z,70.00
2019-02-20T12:46:36.545Z,69.10
2019-02-20T12:49:03.843Z,71.40
2019-02-20T12:51:31.280Z,68.10
2019-02-20T12:53:58.771Z,68.50
2019-02-20T12:56:26.198Z,67.90
2019-02-20T12:58:53.882Z,67.10
2019-02-20T13:01:21.285Z,66.90
2019-02-20T13:03:48.717Z,67.30
2019-02-20T13:06:16.117Z,66.80
2019-02-20T13:08:43.449Z,64.80
2019-02-20T13:11:11.058Z,65.00
2019-02-20T13:13:38.436Z,65.50
2019-02-20T13:16:09.508Z,66.40
2019-02-20T13:18:35.441Z,67.00
2019-02-20T13:21:02.884Z,68.30
2019-02-20T13:23:30.336Z,67.00
2019-02-20T13:25:57.797Z,67.00
2019-02-20T13:28:25.491Z,67.00
2019-02-20T13:30:52.864Z,67.00
2019-02-20T13:33:20.549Z,66.70
2019-02-20T13:35:47.946Z,67.50
2019-02-20T13:38:16.378Z,69.20
2019-02-20T13:40:43.889Z,67.60
2019-02-20T13:43:11.625Z,66.70
2019-02-20T13:45:39.070Z,67.80
2019-02-20T13:48:06.616Z,67.30
2019-02-20T13:50:34.406Z,69.00
2019-02-20T13:53:01.879Z,67.40
2019-02-20T13:55:34.375Z,68.20
2019-02-20T13:57:58.581Z,68.00
2019-02-20T14:00:26.492Z,67.20
2019-02-20T14:02:53.957Z,67.90
2019-02-20T14:05:21.935Z,68.70
2019-02-20T14:07:49.408Z,68.60
2019-02-20T14:10:17.468Z,69.40
2019-02-20T14:12:45.145Z,68.50
2019-02-20T14:15:12.656Z,68.80
2019-02-20T14:17:40.084Z,69.90
2019-02-20T14:20:08.360Z,68.90
2019-02-20T14:22:36.166Z,69.60
2019-02-20T14:25:03.649Z,68.40
2019-02-20T14:27:31.565Z,68.30
2019-02-20T14:29:59.101Z,67.60
2019-02-20T14:32:26.617Z,67.50
2019-02-20T14:34:53.991Z,68.80
2019-02-20T14:37:22.671Z,67.50
2019-02-20T14:39:50.619Z,68.30
2019-02-20T14:42:18.376Z,67.60
2019-02-20T14:44:46.039Z,66.30
2019-02-20T14:47:13.470Z,65.80
2019-02-20T14:49:40.870Z,65.50
2019-02-20T14:52:08.728Z,65.40
2019-02-20T14:54:36.148Z,66.00
2019-02-20T14:57:03.826Z,66.90
2019-02-20T14:59:31.764Z,66.10
2019-02-20T15:02:00.047Z,64.70
2019-02-20T15:04:27.466Z,65.40
2019-02-20T15:06:55.356Z,66.30
2019-02-20T15:09:22.786Z,66.40
2019-02-20T15:11:50.846Z,66.30
2019-02-20T15:14:18.771Z,65.00
2019-02-20T15:16:46.890Z,64.70
2019-02-20T15:19:14.362Z,64.80
2019-02-20T15:21:41.944Z,64.30
2019-02-20T15:24:09.386Z,65.40
2019-02-20T15:26:37.272Z,66.00
2019-02-20T15:29:04.698Z,66.60
2019-02-20T15:31:33.938Z,67.60
2019-02-20T15:34:01.890Z,67.40
2019-02-20T15:36:29.398Z,68.50
2019-02-20T15:38:56.779Z,67.80
2019-02-20T15:41:24.468Z,68.10
2019-02-20T15:43:52.201Z,68.00
2019-02-20T15:46:19.934Z,69.10
2019-02-20T15:48:47.500Z,69.90
2019-02-20T15:51:15.252Z,68.70
2019-02-20T15:53:42.841Z,68.80
2019-02-20T15:56:10.233Z,68.70
2019-02-20T15:58:37.980Z,69.00
2019-02-20T16:01:07.954Z,68.20
2019-02-20T16:03:35.547Z,69.90
2019-02-20T16:06:03.170Z,71.00
2019-02-20T16:08:30.581Z,70.80
2019-02-20T16:10:58.125Z,71.90
2019-02-20T16:13:25.688Z,73.40
2019-02-20T16:15:53.112Z,71.60
2019-02-20T16:18:20.838Z,73.40
2019-02-20T16:20:48.299Z,74.90
2019-02-20T16:23:16.443Z,74.20
2019-02-20T16:25:44.891Z,73.40
2019-02-20T16:28:12.352Z,73.20
2019-02-20T16:30:39.896Z,73.30
2019-02-20T16:33:07.907Z,73.70
2019-02-20T16:35:35.690Z,73.50
2019-02-20T16:38:03.189Z,73.60
2019-02-20T16:40:30.960Z,73.50
2019-02-20T16:42:58.563Z,74.00
2019-02-20T16:45:25.990Z,75.20
2019-02-20T16:47:53.697Z,76.70
2019-02-20T16:50:21.124Z,78.00
2019-02-20T16:52:48.541Z,78.70
2019-02-20T16:55:19.149Z,80.30
2019-02-20T16:57:45.475Z,81.00
2019-02-20T17:00:13.580Z,81.70
2019-02-20T17:02:41.617Z,82.20
2019-02-20T17:05:13.088Z,83.30
2019-02-20T17:07:40.306Z,85.00
2019-02-20T17:10:08.666Z,85.40
2019-02-20T17:12:36.125Z,86.40
2019-02-20T17:15:03.931Z,86.70
2019-02-20T17:17:31.877Z,87.00
2019-02-20T17:19:59.930Z,88.40
2019-02-20T17:22:27.863Z,90.00
2019-02-20T17:24:55.574Z,90.20
2019-02-20T17:27:23.070Z,90.30
2019-02-20T17:29:50.506Z,90.50
2019-02-20T17:32:18.233Z,90.70
2019-02-20T17:34:45.921Z,90.80
2019-02-20T17:37:13.586Z,91.10
2019-02-20T17:39:41.561Z,91.20
2019-02-20T17:42:08.961Z,91.40
2019-02-20T17:44:36.450Z,91.30
2019-02-20T17:47:03.880Z,91.40
2019-02-20T17:49:31.483Z,91.40
2019-02-20T17:51:59.152Z,91.40
2019-02-20T17:54:26.878Z,91.50
2019-02-20T17:56:54.691Z,91.50
2019-02-20T17:59:22.024Z,91.40
2019-02-20T18:01:50.043Z,91.30
2019-02-20T18:04:17.705Z,91.80
2019-02-20T18:06:45.484Z,91.90
2019-02-20T18:09:13.128Z,92.20
2019-02-20T18:11:40.494Z,92.50
2019-02-20T18:14:09.782Z,92.80
2019-02-20T18:16:37.806Z,93.00
2019-02-20T18:19:05.500Z,93.40
2019-02-20T18:21:33.066Z,93.70
2019-02-20T18:24:00.509Z,94.00
2019-02-20T18:26:27.833Z,94.20
2019-02-20T18:28:55.290Z,94.30
2019-02-20T18:31:22.790Z,94.40
2019-02-20T18:33:50.502Z,94.50
2019-02-20T18:36:18.273Z,94.90
2019-02-20T18:38:45.664Z,95.30
2019-02-20T18:41:14.506Z,95.40
2019-02-20T18:43:42.754Z,95.40
2019-02-20T18:46:10.173Z,95.20
2019-02-20T18:48:37.619Z,95.60
2019-02-20T18:51:05.199Z,95.40
2019-02-20T18:53:32.978Z,95.20
2019-02-20T18:56:01.295Z,95.00
2019-02-20T18:58:34.018Z,95.00
2019-02-20T19:00:57.967Z,94.90
2019-02-20T19:03:25.394Z,95.00
2019-02-20T19:05:53.130Z,94.90
2019-02-20T19:08:42.124Z,95.00
2019-02-20T19:11:20.037Z,95.20
2019-02-20T19:14:12.574Z,95.10
2019-02-20T19:17:09.405Z,95.10
2019-02-20T19:20:08.340Z,95.10
2019-02-20T19:23:03.168Z,95.40
2019-02-20T19:25:59.511Z,95.60
2019-02-20T19:29:08.869Z,95.80
2019-02-20T19:32:32.564Z,95.90
2019-02-20T19:35:31.934Z,96.10
2019-02-20T19:38:44.361Z,96.20
2019-02-20T19:41:36.626Z,96.30
2019-02-20T19:44:36.582Z,96.50
2019-02-20T19:47:41.147Z,96.80
2019-02-20T19:50:43.972Z,96.90
2019-02-20T19:53:51.256Z,96.80
2019-02-20T19:57:06.707Z,96.60
2019-02-20T20:00:25.295Z,96.60
2019-02-20T20:03:43.677Z,96.50
2019-02-20T20:06:36.738Z,96.50
2019-02-20T20:09:35.846Z,96.40
2019-02-20T20:12:24.221Z,96.40
2019-02-20T20:15:36.833Z,96.30
2019-02-20T20:18:43.926Z,96.40
2019-02-20T20:21:48.909Z,96.60
2019-02-20T20:25:10.800Z,96.70
2019-02-20T20:27:54.520Z,96.60
2019-02-20T20:30:57.460Z,96.70
2019-02-20T20:34:17.403Z,96.90
2019-02-20T20:37:47.931Z,96.80
2019-02-20T20:41:09.270Z,96.90
2019-02-20T20:44:01.715Z,97.10
2019-02-20T20:46:50.068Z,96.90
2019-02-20T20:49:28.843Z,96.80
2019-02-20T20:52:44.383Z,96.60
2019-02-20T20:55:48.712Z,96.60
2019-02-20T20:59:16.949Z,97.20
2019-02-20T21:02:24.609Z,97.60
2019-02-20T21:05:37.182Z,97.70
2019-02-20T21:08:29.158Z,97.60
2019-02-20T21:11:21.181Z,97.90
2019-02-20T21:14:18.491Z,97.80
2019-02-20T21:17:22.201Z,97.50
2019-02-20T21:20:46.816Z,97.60
2019-02-20T21:23:35.256Z,98.00
2019-02-20T21:26:53.327Z,97.60
2019-02-20T21:29:43.873Z,97.60
2019-02-20T21:32:39.325Z,97.90
2019-02-20T21:35:18.457Z,97.40
2019-02-20T21:38:25.273Z,97.40
2019-02-20T21:41:24.114Z,97.30
2019-02-20T21:44:11.209Z,97.20
2019-02-20T21:47:31.240Z,97.20
2019-02-20T21:50:36.993Z,97.00
2019-02-20T21:54:07.411Z,97.20
2019-02-20T21:57:06.764Z,97.30
2019-02-20T21:59:48.467Z,97.30
2019-02-20T22:02:40.647Z,97.10
2019-02-20T22:05:41.613Z,97.20
2019-02-20T22:08:52.957Z,97.10
2019-02-20T22:11:55.973Z,97.20
2019-02-20T22:14:54.620Z,97.20
2019-02-20T22:17:52.651Z,97.60
2019-02-20T22:21:03.814Z,97.80
2019-02-20T22:24:08.394Z,98.40
2019-02-20T22:27:20.307Z,98.20
2019-02-20T22:30:44.191Z,98.20
2019-02-20T22:33:54.719Z,97.80
2019-02-20T22:37:07.269Z,97.80
2019-02-20T22:39:57.667Z,97.70
2019-02-20T22:43:25.124Z,97.90
2019-02-20T22:46:00.626Z,97.90
2019-02-20T22:48:50.209Z,97.90
2019-02-20T22:52:10.038Z,98.10
2019-02-20T22:55:28.604Z,98.70
2019-02-20T22:58:12.216Z,98.20
2019-02-20T23:01:17.633Z,98.50
2019-02-20T23:03:57.322Z,98.50
2019-02-20T23:07:24.222Z,98.40
2019-02-20T23:10:22.973Z,98.40
2019-02-20T23:13:02.626Z,98.20
2019-02-20T23:15:30.038Z,98.10
2019-02-20T23:17:57.402Z,97.90
2019-02-20T23:20:25.121Z,97.90
2019-02-20T23:22:52.582Z,97.80
2019-02-20T23:25:20.164Z,97.90
2019-02-20T23:27:47.626Z,97.80
2019-02-20T23:30:15.032Z,98.30
2019-02-20T23:32:43.372Z,98.10
2019-02-20T23:35:11.171Z,98.30
2019-02-20T23:37:38.540Z,98.30
2019-02-20T23:40:06.933Z,98.50
2019-02-20T23:42:34.914Z,98.50
2019-02-20T23:45:02.569Z,99.10
2019-02-20T23:47:29.906Z,99.90
2019-02-20T23:49:57.324Z,99.90
2019-02-20T23:52:24.717Z,99.90
2019-02-20T23:54:52.100Z,99.90
2019-02-20T23:57:19.498Z,99.90
2019-02-20T23:59:47.231Z,99.90
